AirNav   Duncan Aviation - Near you to keep you flying
 
 547 users online  

24AK Toad Lake Strip Airport
Meadow Lakes, Alaska, USA

GOING TO MEADOW LAKES?


FAA INFORMATION EFFECTIVE 26 JANUARY 2023

Location

FAA Identifier: 24AK
Lat/Long: 61-36-56.7000N 149-42-24.9500W
61-36.945000N 149-42.415833W
61.6157500,-149.7069306
(estimated)
Elevation: 100 ft. / 30 m (estimated)
Variation: 22E (2000)
From city: 5 miles SE of MEADOW LAKES, AK
Time zone: UTC -9 (UTC -8 during Daylight Saving Time)
Zip code: 99654

Airport Operations

Airport use: Private use. Permission required prior to landing
Activation date: 06/2002
Control tower: no
ARTCC: ANCHORAGE CENTER
FSS: KENAI FLIGHT SERVICE STATION [907-283-7211]
Attendance: UNATNDD
Segmented circle: no

Airport Communications

CTAF: 122.8
WX AWOS-3P at IYS (5 nm SE): 135.25 (907-373-3801)
WX AWOS-3P at BCV (13 nm SE): 135.55 (907-688-0826)
WX ASOS at PAQ (18 nm E): 134.75 (907-746-6675)

Nearby radio navigation aids

VOR radial/distance  VOR name  Freq  Var
BGQr050/7.9BIG LAKE VORTAC112.5019E
TEDr357/27.8ANCHORAGE VOR/DME113.1518E

Airport Services

Runway Information

Runway 14/32

Dimensions: 1300 x 200 ft. / 396 x 61 m
NOT PLOWED IN WINTER.
Surface: turf
Operational restrictions: SOFT DURING SPRING BREAK-UP. CLSD INDEFLY DUE TO TREE CLEARING.
RUNWAY 14  RUNWAY 32
Traffic pattern: leftleft
Obstructions: 30 ft. trees30 ft. trees

Airport Ownership and Management from official FAA records

Ownership: Privately-owned
Owner: RICHARD P. ELMQUIST
PO BOX 940232
HOUSTON, AK 99694
Phone (907) 232-6129
Manager: RICHARD P. ELMQUIST
P.O. BOX 940232
HOUSTON, AK 99694
Phone (907) 232-6129

Instrument Procedures

There are no published instrument procedures at 24AK.

Some nearby airports with instrument procedures:

PAWS - Wasilla Airport (5 nm SE)
PAGQ - Big Lake Airport (6 nm SW)
PAUO - Willow Airport (13 nm NW)
PAAQ - Warren "Bud" Woods Palmer Municipal Airport (18 nm E)
PAFR - Bryant Army Airfield Heliport (21 nm S)
 
Loc | Ops | Rwys | IFR | FBO | Links
Com | Nav | Svcs | Stats | Notes

Crowley Maritime Corporation
 
Area around 24AK (Toad Lake Strip Airport)
 
Road maps at: MapQuest Bing Google
 
Aerial photo
No photo
 
Sectional chart

 
Airport distance calculator
Flying to Toad Lake Strip Airport? Find the distance to fly.

From to 24AK

Sunrise and sunset
Times for 28-Jan-2023
 Local
(UTC-9)
 Zulu
(UTC)
Morning civil twilight08:4117:41
Sunrise09:3318:33
Sunset16:5101:51
Evening civil twilight17:4302:43

Current date and time
Zulu (UTC)  29-Jan-2023 08:46:43
Local (UTC-9)  28-Jan-2023 23:46:43
 
METAR
PABV 
13nm SE 
290756Z AUTO 00000KT 10SM OVC055 M06/M07 A3067 RMK AO2 SLP393 T10611072 FZRANO
PAAQ 
18nm E 
290753Z AUTO 00000KT 10SM OVC055 M02/M04 A3064 RMK AO2 SLP382 T10171039 TSNO
PAFR 
21nm S 
290755Z AUTO 00000KT 10SM BKN160 M09/M09 A3060 RMK AO2 SLP374 T10861094 VISNO RWY35 CHINO RWY35 $
PAED 
22nm S 
290755Z 00000KT 10SM FEW010 SCT045 BKN170 M06/M07 A3063 RMK AO2A SLP371 T10591067
PAMR 
24nm S 
290753Z 35003KT 10SM FEW050 M05/M07 A3065 RMK AO2 SLP383 I1000 T10501072
TAF
PAAQ 
18nm E 
290529Z 2906/3006 VRB03KT P6SM OVC050 FM300200 VRB03KT 5SM -SN OVC030 FM300400 VRB04KT 3SM -SN BR OVC020
PAED 
22nm S 
290600Z 2906/3012 VRB06KT 9999 FEW030 FEW060 QNH3062INS BECMG 2911/2912 VRB06KT 9999 VCFG SCT005 SCT035 SCT150 QNH3048INS BECMG 2920/2921 03006KT 9999 NSW SCT030 BKN100 510303 QNH3035INS BECMG 3000/3001 03006KT 8000 -SN BR BKN020 OVC050 620209 510303 QNH3023INS BECMG 3007/3008 VRB06KT 9999 NSW BKN030 OVC060 610307 QNH3017INS TXM01/3001Z TNM08/2912Z
NOTAMs
Click for the latest NOTAMs
NOTAMs are issued by the DoD/FAA and will open in a separate window not controlled by AirNav.

 

 
 

Would you like to see your business listed on this page?

 If your business provides an interesting product or service to pilots, flight crews, aircraft, or users of the Toad Lake Strip Airport, you should consider listing it here.  To start the listing process, click on the button below
 
Add a business
 

Other Pages about Toad Lake Strip Airport

Update a link
 
Copyright © AirNav, LLC. All rights reserved. Privacy Policy  Contact